N195AW E16-KPAO

Flight info

Callsign N195AW
Flight time 0h 31m
Altitude VFR/030
Route
Aircraft C172/L-VGD/C

Departure

Time 2026-05-05 02:10
Airport San Martin Airport (E16)

Arrival

Time 2026-05-05 02:42
Airport Palo Alto Airport (KPAO)
Time Latitude Longitude Altitude Speed Heading
2026-05-05 02:10 37.12852 -121.65371 2441 ft 88 kts 307°
2026-05-05 02:10 37.13211 -121.65981 2591 ft 88 kts 309°
2026-05-05 02:11 37.13547 -121.66621 2750 ft 88 kts 287°
2026-05-05 02:11 37.13516 -121.67386 2901 ft 89 kts 258°
2026-05-05 02:11 37.13354 -121.68138 3031 ft 91 kts 256°
2026-05-05 02:11 37.13205 -121.68936 3072 ft 96 kts 261°
2026-05-05 02:12 37.13061 -121.69764 3096 ft 99 kts 259°
2026-05-05 02:12 37.12821 -121.71552 2976 ft 104 kts 274°
2026-05-05 02:12 37.12962 -121.72446 2933 ft 106 kts 289°
2026-05-05 02:13 37.13196 -121.73345 2891 ft 108 kts 289°
2026-05-05 02:13 37.13418 -121.74246 2799 ft 111 kts 289°
2026-05-05 02:13 37.13639 -121.75146 2846 ft 105 kts 289°
2026-05-05 02:13 37.13862 -121.75983 3029 ft 98 kts 289°
2026-05-05 02:14 37.14059 -121.76809 3114 ft 101 kts 287°
2026-05-05 02:14 37.14261 -121.77696 3114 ft 107 kts 288°
2026-05-05 02:14 37.14465 -121.78574 3104 ft 106 kts 288°
2026-05-05 02:14 37.14674 -121.79467 3079 ft 106 kts 288°
2026-05-05 02:15 37.14886 -121.80353 3080 ft 104 kts 289°
2026-05-05 02:15 37.15099 -121.81210 3100 ft 102 kts 288°
2026-05-05 02:15 37.15318 -121.82052 3114 ft 102 kts 290°
2026-05-05 02:15 37.15550 -121.82900 3101 ft 104 kts 290°
2026-05-05 02:16 37.15807 -121.83768 3085 ft 105 kts 292°
2026-05-05 02:16 37.16071 -121.84609 3096 ft 104 kts 291°
2026-05-05 02:16 37.16277 -121.85477 3113 ft 102 kts 283°
2026-05-05 02:16 37.16431 -121.86336 3229 ft 99 kts 283°
2026-05-05 02:17 37.16602 -121.87178 3322 ft 99 kts 285°
2026-05-05 02:17 37.16793 -121.88011 3418 ft 101 kts 285°
2026-05-05 02:17 37.16972 -121.88876 3473 ft 103 kts 284°
2026-05-05 02:17 37.17140 -121.89749 3499 ft 103 kts 285°
2026-05-05 02:18 37.17328 -121.90616 3494 ft 104 kts 287°
2026-05-05 02:18 37.17547 -121.91483 3526 ft 102 kts 289°
2026-05-05 02:18 37.17732 -121.92349 3523 ft 105 kts 284°
2026-05-05 02:18 37.17896 -121.93236 3551 ft 104 kts 287°
2026-05-05 02:19 37.18155 -121.94087 3548 ft 105 kts 293°
2026-05-05 02:19 37.18394 -121.94962 3556 ft 106 kts 285°
2026-05-05 02:19 37.18489 -121.95872 3559 ft 105 kts 270°
2026-05-05 02:19 37.18453 -121.96790 3537 ft 106 kts 266°
2026-05-05 02:20 37.18367 -121.97702 3540 ft 105 kts 261°
2026-05-05 02:20 37.18243 -121.98619 3520 ft 106 kts 261°
2026-05-05 02:20 37.18115 -121.99519 3509 ft 105 kts 259°
2026-05-05 02:20 37.18016 -122.00423 3490 ft 105 kts 268°
2026-05-05 02:21 37.18027 -122.01344 3449 ft 106 kts 272°
2026-05-05 02:21 37.18073 -122.02252 3470 ft 102 kts 275°
2026-05-05 02:21 37.18143 -122.03155 3476 ft 103 kts 276°
2026-05-05 02:21 37.18197 -122.04043 3481 ft 104 kts 273°
2026-05-05 02:22 37.18269 -122.04970 3452 ft 106 kts 278°
2026-05-05 02:22 37.18361 -122.05862 3493 ft 102 kts 276°
2026-05-05 02:22 37.18404 -122.06789 3450 ft 107 kts 272°
2026-05-05 02:22 37.18414 -122.07691 3493 ft 103 kts 270°
2026-05-05 02:23 37.18389 -122.08613 3462 ft 106 kts 266°
2026-05-05 02:23 37.18309 -122.09516 3493 ft 104 kts 263°
2026-05-05 02:23 37.18160 -122.10412 3483 ft 107 kts 255°
2026-05-05 02:23 37.17900 -122.11272 3517 ft 104 kts 245°
2026-05-05 02:24 37.17537 -122.12061 3563 ft 101 kts 247°
2026-05-05 02:24 37.17442 -122.12943 3516 ft 106 kts 279°
2026-05-05 02:24 37.17711 -122.13805 3510 ft 104 kts 298°
2026-05-05 02:24 37.18010 -122.14624 3510 ft 104 kts 292°
2026-05-05 02:25 37.18255 -122.15475 3499 ft 102 kts 289°
2026-05-05 02:25 37.18437 -122.16335 3475 ft 104 kts 284°
2026-05-05 02:25 37.18564 -122.17240 3449 ft 105 kts 284°
2026-05-05 02:25 37.18933 -122.18007 3436 ft 102 kts 320°
2026-05-05 02:26 37.19583 -122.18340 3415 ft 103 kts 342°
2026-05-05 02:26 37.20255 -122.18618 3437 ft 102 kts 337°
2026-05-05 02:26 37.20931 -122.18971 3412 ft 104 kts 339°
2026-05-05 02:26 37.21616 -122.19273 3414 ft 105 kts 341°
2026-05-05 02:27 37.22303 -122.19544 3461 ft 100 kts 344°
2026-05-05 02:27 37.22979 -122.19790 3484 ft 101 kts 342°
2026-05-05 02:27 37.23657 -122.20061 3469 ft 104 kts 342°
2026-05-05 02:27 37.24345 -122.20351 3483 ft 103 kts 338°
2026-05-05 02:28 37.25009 -122.20701 3476 ft 103 kts 336°
2026-05-05 02:28 37.25681 -122.21054 3487 ft 104 kts 338°
2026-05-05 02:28 37.26348 -122.21401 3511 ft 103 kts 335°
2026-05-05 02:28 37.26992 -122.21823 3505 ft 104 kts 328°
2026-05-05 02:29 37.27584 -122.22324 3534 ft 102 kts 324°
2026-05-05 02:29 37.28187 -122.22830 3542 ft 103 kts 327°
2026-05-05 02:29 37.28784 -122.23339 3547 ft 103 kts 321°
2026-05-05 02:29 37.29328 -122.23933 3542 ft 105 kts 321°
2026-05-05 02:30 37.29950 -122.24397 3556 ft 104 kts 330°
2026-05-05 02:30 37.30584 -122.24849 3570 ft 103 kts 328°
2026-05-05 02:30 37.31211 -122.25303 3497 ft 105 kts 329°
2026-05-05 02:30 37.31835 -122.25786 3442 ft 104 kts 324°
2026-05-05 02:31 37.32373 -122.26372 3386 ft 104 kts 310°
2026-05-05 02:31 37.32886 -122.27016 3317 ft 105 kts 326°
2026-05-05 02:31 37.33563 -122.27245 3277 ft 103 kts 359°
2026-05-05 02:31 37.34291 -122.27116 3154 ft 106 kts
2026-05-05 02:32 37.35009 -122.26941 3110 ft 103 kts
2026-05-05 02:32 37.35719 -122.26857 3069 ft 98 kts
2026-05-05 02:32 37.36393 -122.26771 3008 ft 99 kts
2026-05-05 02:32 37.37090 -122.26756 2907 ft 100 kts 351°
2026-05-05 02:33 37.37768 -122.26914 2828 ft 99 kts 345°
2026-05-05 02:33 37.38427 -122.27101 2801 ft 96 kts 343°
2026-05-05 02:33 37.39127 -122.27092 2668 ft 107 kts 18°
2026-05-05 02:33 37.39671 -122.26430 2404 ft 114 kts 59°
2026-05-05 02:34 37.40028 -122.25559 2206 ft 108 kts 60°
2026-05-05 02:34 37.40389 -122.24773 2089 ft 101 kts 50°
2026-05-05 02:34 37.40902 -122.24162 1870 ft 103 kts 26°
2026-05-05 02:34 37.41489 -122.23725 1859 ft 93 kts 30°
2026-05-05 02:35 37.41969 -122.23185 1896 ft 92 kts 44°
2026-05-05 02:35 37.42356 -122.22527 1958 ft 93 kts 46°
2026-05-05 02:35 37.42768 -122.21903 2074 ft 96 kts 43°
2026-05-05 02:35 37.43240 -122.21260 2162 ft 103 kts 42°
2026-05-05 02:36 37.43734 -122.20596 2265 ft 104 kts 41°
2026-05-05 02:36 37.44316 -122.20047 2246 ft 106 kts 25°
2026-05-05 02:36 37.44984 -122.19657 2169 ft 106 kts 18°
2026-05-05 02:36 37.45671 -122.19291 2034 ft 104 kts 20°
2026-05-05 02:37 37.46296 -122.18855 1852 ft 105 kts 30°
2026-05-05 02:37 37.46898 -122.18375 1708 ft 101 kts 30°
2026-05-05 02:37 37.47384 -122.17769 1562 ft 102 kts 64°
2026-05-05 02:37 37.47469 -122.16858 1322 ft 105 kts 96°
2026-05-05 02:38 37.47237 -122.16011 1165 ft 101 kts 124°
2026-05-05 02:38 37.46828 -122.15337 1099 ft 94 kts 132°
2026-05-05 02:38 37.46384 -122.14740 1065 ft 91 kts 137°
2026-05-05 02:38 37.45930 -122.14201 1058 ft 90 kts 139°
2026-05-05 02:39 37.45452 -122.13678 1062 ft 92 kts 142°
2026-05-05 02:39 37.44984 -122.13143 1103 ft 88 kts 136°
2026-05-05 02:39 37.44571 -122.12614 1131 ft 75 kts 136°
2026-05-05 02:39 37.44206 -122.12127 1054 ft 77 kts 136°
2026-05-05 02:40 37.43786 -122.11699 985 ft 78 kts 140°
2026-05-05 02:40 37.43547 -122.11100 893 ft 75 kts 85°
2026-05-05 02:40 37.43777 -122.10565 777 ft 67 kts 36°
2026-05-05 02:40 37.44179 -122.10375 699 ft 58 kts
2026-05-05 02:41 37.44572 -122.10250 652 ft 57 kts 355°
2026-05-05 02:41 37.44942 -122.10409 578 ft 55 kts 325°
2026-05-05 02:41 37.45272 -122.10689 420 ft 58 kts 317°
2026-05-05 02:41 37.45604 -122.11014 180 ft 62 kts 330°
2026-05-05 02:42 37.45930 -122.11325 15 ft 51 kts 318°
2026-05-05 02:42 37.46139 -122.11533 7 ft 12 kts 321°
2026-05-05 02:42 37.46143 -122.11574 7 ft 4 kts 227°
2026-05-05 02:42 37.46108 -122.11564 7 ft 5 kts 141°
2026-05-05 02:43 37.46080 -122.11536 7 ft 5 kts 142°
2026-05-05 02:43 37.46056 -122.11512 7 ft 2 kts 142°
2026-05-05 02:43 37.46048 -122.11504 7 ft 1 kts 137°
2026-05-05 02:43 37.46015 -122.11469 7 ft 10 kts 141°
2026-05-05 02:44 37.45963 -122.11429 7 ft 1 kts 234°
2026-05-05 02:44 37.45931 -122.11478 7 ft 4 kts 163°
2026-05-05 02:44 37.45929 -122.11470 7 ft 0 kts 94°
2026-05-05 02:44 37.45929 -122.11469 7 ft 0 kts 72°